Time;durP1;ratioP1;P1;durP2;ratioP2;P2;SDS_P1;SDS_P2;PMS_P1;PMS_P2;Temp;Humidity;BMP_temperature;BMP_pressure;BME280_temperature;BME280_humidity;BME280_pressure;Samples;Min_cycle;Max_cycle;Signal;HPM_P1;HPM_P2
2023/10/29 00:00:20;;;;;;;2.27;2.07;;;;;12.80;98846.00;;;;5038275;28;20236;-72
2023/10/29 00:03:07;;;;;;;2.30;1.93;;;;;12.90;98844.00;;;;5021035;28;20229;-71
2023/10/29 00:05:54;;;;;;;4.30;2.03;;;;;12.90;98847.00;;;;5016629;28;20225;-70
2023/10/29 00:08:40;;;;;;;2.93;2.37;;;;;12.80;98838.00;;;;5015262;28;20233;-72
2023/10/29 00:11:27;;;;;;;3.50;1.70;;;;;12.90;98840.00;;;;5042325;28;20224;-68
2023/10/29 00:14:14;;;;;;;2.47;1.70;;;;;12.90;98833.00;;;;5036600;28;20232;-70
2023/10/29 00:17:01;;;;;;;2.63;1.77;;;;;12.90;98819.00;;;;5026064;28;20256;-71
2023/10/29 00:19:50;;;;;;;3.23;1.93;;;;;12.90;98812.00;;;;5037427;28;20619;-71
2023/10/29 00:22:36;;;;;;;2.80;2.20;;;;;13.00;98815.00;;;;5018081;28;20361;-71
2023/10/29 00:25:23;;;;;;;2.27;1.73;;;;;12.90;98799.00;;;;5024587;28;20265;-70
2023/10/29 00:28:11;;;;;;;5.90;1.93;;;;;13.00;98802.00;;;;5017146;28;20227;-70
2023/10/29 00:30:59;;;;;;;1.97;1.60;;;;;13.00;98810.00;;;;5015829;28;20233;-71
2023/10/29 00:33:46;;;;;;;3.43;1.70;;;;;13.00;98800.00;;;;5022717;28;20258;-70
2023/10/29 00:36:32;;;;;;;4.27;2.23;;;;;13.10;98798.00;;;;5015735;28;20234;-71
2023/10/29 00:39:18;;;;;;;7.13;1.93;;;;;13.00;98792.00;;;;5019261;28;20234;-71
2023/10/29 00:42:06;;;;;;;4.50;1.80;;;;;13.00;98782.00;;;;5023172;28;20233;-70
2023/10/29 00:44:52;;;;;;;5.03;1.70;;;;;13.00;98781.00;;;;5020593;28;20889;-70
2023/10/29 00:47:40;;;;;;;1.70;1.60;;;;;13.00;98794.00;;;;5016820;28;20272;-71
2023/10/29 00:50:28;;;;;;;2.90;1.97;;;;;13.00;98796.00;;;;5014282;28;20345;-71
2023/10/29 00:53:14;;;;;;;2.30;1.70;;;;;13.00;98784.00;;;;5013735;28;21824;-71
2023/10/29 00:56:02;;;;;;;4.03;1.90;;;;;13.10;98781.00;;;;5021956;28;20234;-70
2023/10/29 00:58:51;;;;;;;1.87;1.60;;;;;13.10;98799.00;;;;5018276;28;20234;-71
2023/10/29 01:01:38;;;;;;;3.43;1.70;;;;;13.10;98776.00;;;;5018464;28;21086;-71
2023/10/29 01:04:25;;;;;;;4.57;1.90;;;;;13.20;98772.00;;;;5020773;28;20260;-71
2023/10/29 01:07:12;;;;;;;1.83;1.40;;;;;13.20;98771.00;;;;5024038;28;20227;-70
2023/10/29 01:09:59;;;;;;;3.13;1.73;;;;;13.20;98774.00;;;;5025613;28;20239;-69
2023/10/29 01:12:46;;;;;;;2.63;1.70;;;;;13.20;98785.00;;;;5019342;28;20880;-71
2023/10/29 01:15:33;;;;;;;3.83;1.87;;;;;13.20;98771.00;;;;5021284;28;20324;-70
2023/10/29 01:18:19;;;;;;;5.33;1.70;;;;;13.20;98762.00;;;;5018959;28;20249;-72
2023/10/29 01:21:08;;;;;;;2.60;1.53;;;;;13.20;98774.00;;;;5021975;28;20224;-71
2023/10/29 01:23:55;;;;;;;3.53;1.60;;;;;13.30;98781.00;;;;5026288;28;20229;-70
2023/10/29 01:26:41;;;;;;;3.87;1.90;;;;;13.20;98769.00;;;;5020304;28;20232;-70
2023/10/29 01:29:28;;;;;;;3.70;1.80;;;;;13.30;98761.00;;;;5018266;28;20283;-70
2023/10/29 01:32:14;;;;;;;3.70;1.37;;;;;13.40;98748.00;;;;5020678;28;20602;-72
2023/10/29 01:35:00;;;;;;;2.60;1.60;;;;;13.40;98742.00;;;;5021126;28;20258;-70
2023/10/29 01:37:48;;;;;;;3.17;1.50;;;;;13.40;98731.00;;;;5024451;28;20233;-70
2023/10/29 01:40:35;;;;;;;1.57;1.27;;;;;13.40;98726.00;;;;5021839;28;20316;-70
2023/10/29 01:43:21;;;;;;;3.93;1.20;;;;;13.40;98718.00;;;;5011077;28;20221;-72
2023/10/29 01:46:08;;;;;;;3.17;1.57;;;;;13.50;98728.00;;;;5026831;28;20222;-71
2023/10/29 01:48:54;;;;;;;2.20;1.60;;;;;13.50;98727.00;;;;5017238;28;20320;-71
2023/10/29 01:51:41;;;;;;;2.23;1.50;;;;;13.50;98709.00;;;;5015167;28;20229;-72
2023/10/29 01:54:28;;;;;;;1.67;1.57;;;;;13.50;98717.00;;;;5023395;28;20296;-71
2023/10/29 01:57:15;;;;;;;2.70;1.50;;;;;13.50;98706.00;;;;5014886;28;20351;-71
2023/10/29 02:00:03;;;;;;;1.60;1.20;;;;;13.50;98701.00;;;;5045448;28;20310;-70
2023/10/29 02:02:50;;;;;;;2.20;1.50;;;;;13.50;98694.00;;;;5022583;28;20225;-71
2023/10/29 02:05:36;;;;;;;2.13;1.53;;;;;13.50;98694.00;;;;5024566;28;20370;-71
2023/10/29 02:08:22;;;;;;;1.77;1.43;;;;;13.60;98683.00;;;;5027916;28;20224;-71
2023/10/29 02:11:10;;;;;;;3.23;1.60;;;;;13.50;98677.00;;;;5021724;28;20286;-69
2023/10/29 02:13:57;;;;;;;1.83;1.23;;;;;13.50;98685.00;;;;5042682;28;20261;-71
2023/10/29 02:16:43;;;;;;;3.43;1.30;;;;;13.60;98675.00;;;;5024538;28;20234;-71
2023/10/29 02:19:30;;;;;;;2.10;1.53;;;;;13.60;98666.00;;;;5020287;28;20974;-73
2023/10/29 02:22:17;;;;;;;6.83;1.50;;;;;13.60;98663.00;;;;5022994;28;20227;-70
2023/10/29 02:25:05;;;;;;;2.57;1.50;;;;;13.70;98656.00;;;;5022861;28;20703;-71
2023/10/29 02:27:51;;;;;;;1.63;1.30;;;;;13.70;98653.00;;;;5019568;28;20241;-71
2023/10/29 02:30:38;;;;;;;1.40;1.30;;;;;13.80;98666.00;;;;5027266;28;20233;-72
2023/10/29 02:33:24;;;;;;;1.37;1.13;;;;;13.70;98668.00;;;;5022180;28;20240;-70
2023/10/29 02:36:10;;;;;;;3.63;1.40;;;;;13.70;98654.00;;;;5020356;28;20229;-70
2023/10/29 02:38:58;;;;;;;1.97;1.30;;;;;13.70;98661.00;;;;5022616;28;20314;-72
2023/10/29 02:41:45;;;;;;;4.70;1.80;;;;;13.80;98665.00;;;;5024042;28;20316;-72
2023/10/29 02:44:32;;;;;;;1.40;1.30;;;;;13.80;98657.00;;;;5020395;28;20230;-71
2023/10/29 02:47:18;;;;;;;2.43;1.50;;;;;13.70;98642.00;;;;5024147;28;20723;-71
2023/10/29 02:50:05;;;;;;;3.17;1.30;;;;;13.70;98659.00;;;;5013423;28;20265;-71
2023/10/29 02:52:51;;;;;;;2.80;1.30;;;;;13.80;98663.00;;;;5043473;28;20788;-71
2023/10/29 02:55:39;;;;;;;1.20;1.10;;;;;13.70;98657.00;;;;5021591;28;20653;-73
2023/10/29 02:58:26;;;;;;;7.40;1.70;;;;;13.70;98635.00;;;;5021630;28;20237;-71
2023/10/29 03:01:15;;;;;;;1.80;1.37;;;;;13.70;98648.00;;;;5023563;28;20296;-70
2023/10/29 03:04:02;;;;;;;5.40;1.40;;;;;13.60;98641.00;;;;5019681;28;20231;-71
2023/10/29 03:06:49;;;;;;;3.17;1.53;;;;;13.70;98651.00;;;;5033922;28;20232;-71
2023/10/29 03:09:35;;;;;;;1.33;1.20;;;;;13.70;98644.00;;;;5019382;28;20720;-70
2023/10/29 03:12:23;;;;;;;2.90;1.40;;;;;13.70;98635.00;;;;5018773;28;20235;-71
2023/10/29 03:15:10;;;;;;;1.27;1.10;;;;;13.70;98638.00;;;;5013076;28;20221;-71
2023/10/29 03:17:56;;;;;;;2.00;1.50;;;;;13.70;98633.00;;;;5026218;28;20238;-71
2023/10/29 03:20:42;;;;;;;3.27;1.30;;;;;13.80;98656.00;;;;5020346;28;20238;-70
2023/10/29 03:23:29;;;;;;;2.50;1.33;;;;;13.80;98647.00;;;;5018521;28;20737;-70
2023/10/29 03:26:15;;;;;;;1.67;1.23;;;;;13.80;98640.00;;;;5015974;28;20228;-71
2023/10/29 03:29:03;;;;;;;4.17;1.27;;;;;13.80;98642.00;;;;5041965;28;20299;-71
2023/10/29 03:31:50;;;;;;;3.50;1.40;;;;;13.80;98618.00;;;;5052304;28;20233;-70
2023/10/29 03:34:37;;;;;;;1.40;1.30;;;;;13.80;98632.00;;;;5041611;28;20209;-69
2023/10/29 03:37:25;;;;;;;1.47;1.17;;;;;13.80;98632.00;;;;5068286;28;20239;-72
2023/10/29 03:40:11;;;;;;;3.77;1.20;;;;;13.80;98619.00;;;;5068142;28;20329;-70
2023/10/29 03:42:58;;;;;;;2.27;1.40;;;;;13.90;98629.00;;;;5043980;28;20249;-71
2023/10/29 03:45:46;;;;;;;2.90;1.40;;;;;13.80;98632.00;;;;5045048;28;20254;-70
2023/10/29 03:48:33;;;;;;;1.77;1.20;;;;;13.80;98624.00;;;;5038215;28;20267;-71
2023/10/29 03:51:19;;;;;;;1.73;1.23;;;;;13.90;98624.00;;;;5062126;28;20424;-71
2023/10/29 03:54:07;;;;;;;1.37;1.10;;;;;13.80;98629.00;;;;5041349;28;21016;-75
2023/10/29 03:56:53;;;;;;;1.00;1.00;;;;;13.80;98620.00;;;;5034968;28;20237;-71
2023/10/29 03:59:39;;;;;;;2.30;1.23;;;;;13.80;98623.00;;;;5010531;28;20237;-70
2023/10/29 04:02:27;;;;;;;1.00;1.00;;;;;13.80;98618.00;;;;5039192;28;20231;-70
2023/10/29 04:05:14;;;;;;;1.57;1.20;;;;;13.80;98619.00;;;;5020786;28;20362;-70
2023/10/29 04:08:00;;;;;;;2.40;1.07;;;;;13.90;98629.00;;;;5040443;28;20249;-71
2023/10/29 04:10:47;;;;;;;1.27;1.10;;;;;13.90;98637.00;;;;5012645;28;20232;-72
2023/10/29 04:13:33;;;;;;;3.47;1.30;;;;;13.90;98648.00;;;;5033371;28;20348;-70
2023/10/29 04:16:19;;;;;;;1.30;1.03;;;;;14.00;98640.00;;;;5035726;28;20300;-71
2023/10/29 04:19:07;;;;;;;2.10;1.30;;;;;14.00;98635.00;;;;5015072;28;20389;-69
2023/10/29 04:21:54;;;;;;;2.20;1.00;;;;;14.00;98641.00;;;;5021366;28;20231;-71
2023/10/29 04:24:40;;;;;;;1.77;1.27;;;;;14.00;98636.00;;;;5021458;28;20232;-72
2023/10/29 04:27:26;;;;;;;2.37;1.10;;;;;13.90;98631.00;;;;5040776;28;20725;-71
2023/10/29 04:30:13;;;;;;;2.00;1.20;;;;;13.90;98630.00;;;;5025547;28;20245;-71
2023/10/29 04:33:00;;;;;;;1.10;1.00;;;;;14.00;98630.00;;;;5019906;28;20247;-72
2023/10/29 04:35:47;;;;;;;2.10;1.27;;;;;13.90;98636.00;;;;5022200;28;20315;-70
2023/10/29 04:38:36;;;;;;;1.20;1.10;;;;;13.90;98632.00;;;;5021705;28;20708;-72
2023/10/29 04:41:23;;;;;;;0.90;0.90;;;;;14.00;98637.00;;;;5019488;28;20257;-69
2023/10/29 04:44:09;;;;;;;3.40;1.30;;;;;14.00;98637.00;;;;5018541;28;20242;-71
2023/10/29 04:46:56;;;;;;;0.80;0.80;;;;;14.00;98653.00;;;;5016242;28;20339;-70
2023/10/29 04:49:43;;;;;;;2.17;1.20;;;;;14.00;98636.00;;;;5013062;28;20236;-70
2023/10/29 04:52:30;;;;;;;1.63;1.10;;;;;14.10;98655.00;;;;5021070;28;20724;-72
2023/10/29 04:55:17;;;;;;;1.40;1.23;;;;;14.10;98649.00;;;;5020081;28;20729;-71
2023/10/29 04:58:03;;;;;;;1.37;1.10;;;;;14.00;98638.00;;;;5018903;28;20236;-72
2023/10/29 05:00:49;;;;;;;1.33;1.10;;;;;14.00;98623.00;;;;5036957;28;20726;-71
2023/10/29 05:03:36;;;;;;;1.10;1.00;;;;;14.00;98626.00;;;;5016185;28;20230;-71
2023/10/29 05:06:23;;;;;;;1.63;1.10;;;;;14.10;98627.00;;;;5019605;28;20756;-74
2023/10/29 05:09:11;;;;;;;0.93;0.93;;;;;14.00;98626.00;;;;5016502;28;20249;-70
2023/10/29 05:11:57;;;;;;;1.27;1.00;;;;;14.00;98636.00;;;;5033352;28;20227;-72
2023/10/29 05:14:43;;;;;;;1.67;1.20;;;;;14.00;98638.00;;;;5036920;28;20281;-72
2023/10/29 05:17:30;;;;;;;1.20;1.10;;;;;14.00;98655.00;;;;5015061;28;20237;-69
2023/10/29 05:20:16;;;;;;;4.17;1.03;;;;;13.90;98655.00;;;;5020528;28;20303;-70
2023/10/29 05:23:03;;;;;;;1.63;1.13;;;;;14.00;98648.00;;;;5023106;28;20232;-71
2023/10/29 05:25:51;;;;;;;1.30;1.13;;;;;14.00;98657.00;;;;5025096;28;20310;-72
2023/10/29 05:28:37;;;;;;;2.90;1.20;;;;;14.00;98652.00;;;;5018598;28;20227;-71
2023/10/29 05:31:24;;;;;;;6.30;1.10;;;;;13.90;98667.00;;;;5037435;28;20599;-70
2023/10/29 05:34:10;;;;;;;2.70;1.10;;;;;14.00;98666.00;;;;5046289;28;20240;-71
2023/10/29 05:36:57;;;;;;;1.13;1.03;;;;;13.90;98675.00;;;;5046232;28;20231;-71
2023/10/29 05:39:46;;;;;;;1.23;1.00;;;;;14.00;98674.00;;;;5045518;28;20245;-69
2023/10/29 05:42:34;;;;;;;1.33;1.13;;;;;14.00;98683.00;;;;5040893;28;20242;-71
2023/10/29 05:45:21;;;;;;;1.60;0.97;;;;;13.90;98682.00;;;;5026981;28;20609;-69
2023/10/29 05:48:07;;;;;;;2.50;0.90;;;;;14.00;98690.00;;;;5041829;28;20231;-71
2023/10/29 05:50:54;;;;;;;1.50;1.03;;;;;14.00;98671.00;;;;5029079;28;20232;-71
2023/10/29 05:53:40;;;;;;;1.30;1.10;;;;;14.00;98681.00;;;;5027031;28;20261;-71
2023/10/29 05:56:27;;;;;;;4.80;1.00;;;;;14.00;98667.00;;;;5022699;28;20226;-72
2023/10/29 05:59:14;;;;;;;1.67;1.43;;;;;14.00;98658.00;;;;5018511;28;20765;-70
2023/10/29 06:02:01;;;;;;;1.00;1.00;;;;;14.00;98663.00;;;;5019200;28;20369;-72
2023/10/29 06:04:47;;;;;;;1.20;1.10;;;;;14.10;98674.00;;;;5025296;28;20276;-69
2023/10/29 06:07:36;;;;;;;1.17;1.07;;;;;14.00;98670.00;;;;5016275;28;20233;-72
2023/10/29 06:10:22;;;;;;;2.00;1.10;;;;;14.00;98680.00;;;;5043349;28;20311;-72
2023/10/29 06:13:09;;;;;;;1.57;1.03;;;;;14.10;98674.00;;;;5024543;28;20710;-72
2023/10/29 06:15:57;;;;;;;1.67;0.90;;;;;14.10;98673.00;;;;5025652;28;20306;-70
2023/10/29 06:18:43;;;;;;;1.10;1.00;;;;;14.20;98691.00;;;;5025668;28;20713;-70
2023/10/29 06:21:30;;;;;;;1.57;0.90;;;;;14.20;98694.00;;;;5019279;28;20236;-69
2023/10/29 06:24:17;;;;;;;6.10;1.10;;;;;14.20;98699.00;;;;5022514;28;20715;-72
2023/10/29 06:27:04;;;;;;;2.07;1.10;;;;;14.20;98701.00;;;;5025865;28;20335;-71
2023/10/29 06:29:51;;;;;;;1.60;1.07;;;;;14.20;98687.00;;;;5018025;28;20261;-71
2023/10/29 06:32:39;;;;;;;2.80;0.90;;;;;14.20;98713.00;;;;5022746;28;20224;-72
2023/10/29 06:35:25;;;;;;;2.17;1.10;;;;;14.20;98716.00;;;;5038561;28;20280;-72
2023/10/29 06:38:11;;;;;;;1.30;1.03;;;;;14.30;98713.00;;;;5033750;28;20256;-72
2023/10/29 06:40:58;;;;;;;3.63;1.30;;;;;14.30;98712.00;;;;5043105;28;20234;-72
2023/10/29 06:43:44;;;;;;;4.43;1.13;;;;;14.50;98729.00;;;;5023832;28;20218;-71
2023/10/29 06:46:31;;;;;;;3.33;0.90;;;;;14.40;98720.00;;;;5035306;28;20726;-72
2023/10/29 06:49:20;;;;;;;3.27;1.07;;;;;14.50;98740.00;;;;5016279;28;20680;-71
2023/10/29 06:52:07;;;;;;;1.03;0.90;;;;;14.60;98715.00;;;;5019214;28;20242;-72
2023/10/29 06:54:54;;;;;;;1.90;1.10;;;;;14.60;98739.00;;;;5023784;28;20227;-71
2023/10/29 06:57:41;;;;;;;1.13;1.00;;;;;14.60;98740.00;;;;5023831;28;20234;-71
2023/10/29 07:00:29;;;;;;;3.00;1.10;;;;;14.70;98765.00;;;;5020343;28;20248;-70
2023/10/29 07:03:15;;;;;;;3.40;1.10;;;;;14.70;98760.00;;;;5018090;28;20231;-71
2023/10/29 07:06:08;;;;;;;3.83;1.20;;;;;14.60;98756.00;;;;5016170;28;20281;-71
2023/10/29 07:08:54;;;;;;;1.13;0.90;;;;;14.60;98773.00;;;;5039799;28;20238;-72
2023/10/29 07:11:41;;;;;;;3.80;0.90;;;;;14.70;98766.00;;;;5037995;28;20226;-71
2023/10/29 07:14:27;;;;;;;1.27;1.10;;;;;14.70;98764.00;;;;5019251;28;20309;-69
2023/10/29 07:17:13;;;;;;;2.13;0.93;;;;;14.70;98779.00;;;;5016299;28;20226;-70
2023/10/29 07:20:00;;;;;;;1.33;0.80;;;;;14.70;98770.00;;;;5019856;28;20393;-71
2023/10/29 07:22:47;;;;;;;1.97;0.80;;;;;14.60;98787.00;;;;5010567;28;20232;-72
2023/10/29 07:25:34;;;;;;;1.17;1.00;;;;;14.70;98788.00;;;;5037622;28;20985;-73
2023/10/29 07:28:20;;;;;;;5.03;1.30;;;;;14.70;98791.00;;;;5034364;28;20226;-73
2023/10/29 07:31:07;;;;;;;1.07;1.00;;;;;14.90;98799.00;;;;5035863;28;20225;-72
2023/10/29 07:33:53;;;;;;;2.10;0.90;;;;;14.80;98797.00;;;;5035676;28;20308;-71
2023/10/29 07:36:40;;;;;;;2.90;1.00;;;;;14.70;98807.00;;;;5020832;28;20301;-71
2023/10/29 07:39:28;;;;;;;3.17;1.03;;;;;14.70;98780.00;;;;5017015;28;20248;-70
2023/10/29 07:42:14;;;;;;;1.17;0.90;;;;;14.70;98806.00;;;;5016272;28;20291;-71
2023/10/29 07:45:01;;;;;;;2.17;0.97;;;;;14.70;98801.00;;;;5018607;28;20367;-70
2023/10/29 07:47:50;;;;;;;1.47;1.10;;;;;14.70;98818.00;;;;5015922;28;20727;-71
2023/10/29 07:50:36;;;;;;;3.30;1.03;;;;;14.60;98821.00;;;;5024829;28;20608;-72
2023/10/29 07:53:23;;;;;;;2.03;1.00;;;;;14.60;98820.00;;;;5015601;28;20233;-71
2023/10/29 07:56:13;;;;;;;1.10;1.00;;;;;14.60;98822.00;;;;5010701;28;20227;-73
2023/10/29 07:58:59;;;;;;;2.53;1.10;;;;;14.50;98810.00;;;;5013247;28;20233;-73
2023/10/29 08:01:46;;;;;;;3.20;0.90;;;;;14.60;98805.00;;;;5024654;28;20611;-70
2023/10/29 08:04:32;;;;;;;1.77;0.90;;;;;14.60;98821.00;;;;5022230;28;20271;-71
2023/10/29 08:07:20;;;;;;;1.13;0.90;;;;;14.80;98837.00;;;;5021699;28;20226;-71
2023/10/29 08:10:07;;;;;;;3.30;1.00;;;;;14.90;98838.00;;;;5017662;28;20683;-72
2023/10/29 08:12:55;;;;;;;1.20;1.10;;;;;15.00;98849.00;;;;5042147;28;20234;-72
2023/10/29 08:15:41;;;;;;;3.03;1.30;;;;;15.10;98848.00;;;;5039772;28;20279;-71
2023/10/29 08:18:29;;;;;;;3.33;1.20;;;;;15.20;98862.00;;;;5043785;28;20437;-72
2023/10/29 08:21:17;;;;;;;1.17;1.03;;;;;15.30;98889.00;;;;5019101;28;20238;-71
2023/10/29 08:24:04;;;;;;;3.40;1.10;;;;;15.30;98902.00;;;;5020556;28;20320;-73
2023/10/29 08:26:50;;;;;;;4.47;1.27;;;;;15.30;98906.00;;;;5022631;28;20633;-72
2023/10/29 08:29:40;;;;;;;5.60;1.23;;;;;15.40;98901.00;;;;5013194;28;20354;-72
2023/10/29 08:32:27;;;;;;;4.57;2.37;;;;;15.30;98905.00;;;;5012577;28;20226;-71
2023/10/29 08:35:13;;;;;;;4.20;1.50;;;;;15.40;98898.00;;;;5017097;28;20267;-72
2023/10/29 08:38:00;;;;;;;2.13;0.90;;;;;15.30;98888.00;;;;5016187;28;20616;-71
2023/10/29 08:40:46;;;;;;;5.97;2.73;;;;;15.30;98890.00;;;;5016464;28;20344;-73
2023/10/29 08:43:33;;;;;;;10.37;4.97;;;;;15.30;98882.00;;;;5018765;28;20224;-72
2023/10/29 08:46:20;;;;;;;3.60;2.10;;;;;15.20;98880.00;;;;5018205;28;20304;-71
2023/10/29 08:49:07;;;;;;;2.37;1.50;;;;;15.10;98879.00;;;;5042706;28;20268;-70
2023/10/29 08:51:53;;;;;;;4.57;1.20;;;;;15.10;98891.00;;;;5038287;28;20792;-71
2023/10/29 08:54:40;;;;;;;3.23;1.30;;;;;15.10;98905.00;;;;5021079;28;20237;-72
2023/10/29 08:57:26;;;;;;;4.77;1.20;;;;;15.00;98884.00;;;;5018976;28;20260;-72
2023/10/29 09:00:14;;;;;;;5.67;1.83;;;;;15.00;98896.00;;;;5017681;28;20334;-71
2023/10/29 09:03:02;;;;;;;6.03;2.23;;;;;14.90;98898.00;;;;5015862;28;20756;-71
2023/10/29 09:05:48;;;;;;;3.50;1.13;;;;;14.90;98907.00;;;;5020924;28;20358;-71
2023/10/29 09:08:35;;;;;;;4.53;1.53;;;;;14.90;98917.00;;;;5017313;28;20235;-72
2023/10/29 09:11:21;;;;;;;7.30;3.93;;;;;14.80;98921.00;;;;5025324;28;20286;-72
2023/10/29 09:14:10;;;;;;;5.23;1.27;;;;;14.80;98925.00;;;;5019837;28;20238;-72
2023/10/29 09:16:57;;;;;;;1.27;1.17;;;;;14.80;98941.00;;;;5032054;28;20307;-72
2023/10/29 09:19:44;;;;;;;3.73;2.30;;;;;14.80;98966.00;;;;5034217;28;20322;-72
2023/10/29 09:22:32;;;;;;;2.03;1.20;;;;;14.80;98963.00;;;;5021879;28;20288;-73
2023/10/29 09:25:19;;;;;;;1.90;1.20;;;;;14.80;98957.00;;;;5021196;28;20779;-72
2023/10/29 09:28:06;;;;;;;5.13;1.73;;;;;14.80;98957.00;;;;5021386;28;20244;-71
2023/10/29 09:30:52;;;;;;;3.30;1.20;;;;;14.90;98966.00;;;;5021704;28;20260;-73
2023/10/29 09:33:39;;;;;;;5.53;2.00;;;;;14.90;98967.00;;;;5020376;28;20745;-73
2023/10/29 09:36:27;;;;;;;4.50;1.50;;;;;15.00;98967.00;;;;5020114;28;20237;-72
2023/10/29 09:39:13;;;;;;;2.50;1.10;;;;;15.20;98966.00;;;;5017906;28;20437;-72
2023/10/29 09:42:05;;;;;;;2.57;1.33;;;;;15.40;98991.00;;;;5020331;28;20352;-71
2023/10/29 09:44:55;;;;;;;0.90;0.87;;;;;15.40;99017.00;;;;5023039;28;20363;-73
2023/10/29 09:47:41;;;;;;;3.17;1.07;;;;;15.40;98993.00;;;;5020121;28;20274;-72
2023/10/29 09:50:28;;;;;;;9.17;3.83;;;;;15.40;98998.00;;;;5026879;28;20283;-72
2023/10/29 09:53:18;;;;;;;6.17;2.27;;;;;15.40;98988.00;;;;5024237;28;20238;-71
2023/10/29 09:56:08;;;;;;;7.00;2.10;;;;;15.40;98995.00;;;;5021051;28;20233;-70
2023/10/29 09:58:55;;;;;;;3.30;1.30;;;;;15.50;98996.00;;;;5011804;28;20254;-73
2023/10/29 10:01:41;;;;;;;1.93;1.20;;;;;15.50;99000.00;;;;5018573;28;20303;-73
2023/10/29 10:04:44;;;;;;;7.30;1.70;;;;;15.50;98996.00;;;;5014659;28;20702;-72
2023/10/29 10:07:30;;;;;;;2.47;1.20;;;;;15.40;98998.00;;;;5015906;28;20221;-70
2023/10/29 10:10:19;;;;;;;4.73;2.40;;;;;15.50;98989.00;;;;5020504;28;20743;-71
2023/10/29 10:13:05;;;;;;;2.10;1.13;;;;;15.50;98990.00;;;;5020873;28;20302;-72
2023/10/29 10:16:06;;;;;;;1.97;1.13;;;;;15.50;98991.00;;;;5014848;28;20243;-71
2023/10/29 10:18:55;;;;;;;4.33;1.47;;;;;15.60;98981.00;;;;5010270;28;20240;-71
2023/10/29 10:21:43;;;;;;;2.60;1.70;;;;;15.50;98980.00;;;;5020119;28;20232;-71
2023/10/29 10:24:37;;;;;;;4.90;1.13;;;;;15.60;98973.00;;;;5039231;28;20351;-73
2023/10/29 10:27:25;;;;;;;6.10;3.00;;;;;15.60;98968.00;;;;5033245;28;20225;-73
2023/10/29 10:30:24;;;;;;;2.73;1.37;;;;;15.50;98962.00;;;;5012251;28;20238;-71
2023/10/29 10:33:13;;;;;;;5.73;1.33;;;;;15.60;98980.00;;;;5014474;28;20861;-72
2023/10/29 10:35:59;;;;;;;4.93;2.30;;;;;16.00;98972.00;;;;5023814;28;20238;-71
2023/10/29 10:38:52;;;;;;;5.27;2.23;;;;;16.40;98982.00;;;;5021128;28;20309;-70
2023/10/29 10:41:41;;;;;;;3.37;1.43;;;;;16.60;98982.00;;;;5009809;28;20236;-70
2023/10/29 10:44:31;;;;;;;2.83;1.17;;;;;16.70;98975.00;;;;5022442;28;20230;-72
2023/10/29 10:47:18;;;;;;;1.57;1.20;;;;;16.70;98961.00;;;;5021000;28;20229;-69
2023/10/29 10:50:07;;;;;;;3.10;1.60;;;;;16.60;98952.00;;;;5023521;28;20245;-70
2023/10/29 10:52:56;;;;;;;2.87;1.37;;;;;16.40;98957.00;;;;5018186;28;20275;-73
2023/10/29 10:55:44;;;;;;;2.13;1.13;;;;;16.20;98964.00;;;;5024776;28;20217;-71
2023/10/29 10:58:48;;;;;;;1.67;0.83;;;;;16.20;98954.00;;;;5013279;28;20602;-71
2023/10/29 11:01:37;;;;;;;1.07;0.97;;;;;16.20;98960.00;;;;5023318;28;20244;-70
2023/10/29 11:04:26;;;;;;;1.17;1.07;;;;;16.20;98962.00;;;;5039049;28;20248;-73
2023/10/29 11:07:13;;;;;;;1.87;1.07;;;;;16.20;98969.00;;;;5019991;28;20229;-74
2023/10/29 11:10:02;;;;;;;2.13;1.00;;;;;16.20;98956.00;;;;5022371;28;21099;-73
2023/10/29 11:12:49;;;;;;;3.40;1.70;;;;;16.20;98976.00;;;;5019382;28;20349;-73
2023/10/29 11:15:46;;;;;;;3.90;1.30;;;;;16.30;98979.00;;;;5023253;28;20229;-73
2023/10/29 11:18:33;;;;;;;2.40;0.93;;;;;16.30;98976.00;;;;5042973;28;20232;-73
2023/10/29 11:21:33;;;;;;;3.87;1.10;;;;;16.40;98984.00;;;;5043634;28;20227;-72
2023/10/29 11:24:22;;;;;;;2.17;0.77;;;;;16.50;98967.00;;;;5019116;28;20362;-73
2023/10/29 11:27:34;;;;;;;2.07;0.97;;;;;16.50;98992.00;;;;5016806;28;20228;-72
2023/10/29 11:30:22;;;;;;;4.90;2.47;;;;;16.50;98978.00;;;;5039552;28;20380;-72
2023/10/29 11:33:17;;;;;;;1.30;1.20;;;;;16.50;98975.00;;;;5025082;28;20266;-72
2023/10/29 11:36:37;;;;;;;2.10;1.47;;;;;16.40;98975.00;;;;5021899;28;20275;-72
2023/10/29 11:39:32;;;;;;;4.27;2.20;;;;;16.20;98964.00;;;;5016903;28;20951;-73
2023/10/29 11:42:25;;;;;;;6.00;2.83;;;;;16.30;98986.00;;;;5015575;28;20750;-74
2023/10/29 11:45:35;;;;;;;5.07;1.43;;;;;16.30;98975.00;;;;5018923;28;20698;-70
2023/10/29 11:48:22;;;;;;;2.20;1.27;;;;;16.10;98977.00;;;;5018942;28;20239;-70
2023/10/29 11:51:19;;;;;;;1.90;1.10;;;;;16.10;98975.00;;;;5013951;28;20815;-72
2023/10/29 11:54:07;;;;;;;3.07;1.03;;;;;16.10;98992.00;;;;5018833;28;20233;-71
2023/10/29 11:56:53;;;;;;;4.27;2.13;;;;;16.10;98969.00;;;;5023401;28;20248;-68
2023/10/29 11:59:54;;;;;;;7.97;3.50;;;;;16.00;98976.00;;;;5015921;28;20229;-71
2023/10/29 12:02:44;;;;;;;3.63;1.50;;;;;16.10;98967.00;;;;5021632;28;20241;-69
2023/10/29 12:05:30;;;;;;;2.60;1.53;;;;;16.10;98962.00;;;;5020881;28;20225;-71
2023/10/29 12:08:17;;;;;;;2.30;1.00;;;;;16.20;98946.00;;;;5018081;28;20333;-70
2023/10/29 12:11:06;;;;;;;1.53;1.03;;;;;16.40;98945.00;;;;5010741;28;20233;-71
2023/10/29 12:13:53;;;;;;;1.73;1.00;;;;;16.50;98936.00;;;;5034794;28;20706;-70
2023/10/29 12:16:41;;;;;;;2.10;1.30;;;;;16.50;98955.00;;;;5035270;28;20225;-72
2023/10/29 12:19:35;;;;;;;5.30;1.20;;;;;16.60;98972.00;;;;5015117;28;20236;-69
2023/10/29 12:22:23;;;;;;;2.83;1.20;;;;;16.60;98956.00;;;;5017130;28;20452;-70
2023/10/29 12:25:10;;;;;;;2.80;1.40;;;;;16.80;98943.00;;;;5020469;28;20228;-73
2023/10/29 12:27:59;;;;;;;6.60;1.23;;;;;16.80;98934.00;;;;5025186;28;20811;-71
2023/10/29 12:30:47;;;;;;;2.40;0.97;;;;;16.90;98903.00;;;;5020280;28;20801;-71
2023/10/29 12:33:34;;;;;;;4.13;1.30;;;;;17.00;98898.00;;;;5047723;28;20225;-69
2023/10/29 12:36:23;;;;;;;2.27;1.23;;;;;17.20;98900.00;;;;5025537;28;20599;-70
2023/10/29 12:39:14;;;;;;;1.40;1.00;;;;;17.00;98915.00;;;;5015512;28;20373;-70
2023/10/29 12:42:00;;;;;;;2.73;1.07;;;;;17.00;98903.00;;;;5026535;28;20237;-72
2023/10/29 12:44:55;;;;;;;3.17;0.87;;;;;17.00;98904.00;;;;5021221;28;20737;-71
2023/10/29 12:47:41;;;;;;;2.10;0.90;;;;;16.90;98900.00;;;;5019721;28;20225;-69
2023/10/29 12:50:28;;;;;;;2.53;1.00;;;;;17.00;98895.00;;;;5026146;28;20240;-69
2023/10/29 12:53:21;;;;;;;1.60;0.90;;;;;17.10;98884.00;;;;5017154;28;20357;-71
2023/10/29 12:56:14;;;;;;;3.73;1.00;;;;;17.10;98897.00;;;;5023905;28;20346;-70
2023/10/29 12:59:01;;;;;;;1.90;0.90;;;;;16.80;98878.00;;;;5025429;28;20745;-70
2023/10/29 13:01:50;;;;;;;1.53;1.10;;;;;16.60;98914.00;;;;5027366;28;20271;-70
2023/10/29 13:04:38;;;;;;;2.03;0.97;;;;;16.50;98921.00;;;;5023379;28;20776;-69
2023/10/29 13:07:24;;;;;;;1.73;0.90;;;;;16.50;98925.00;;;;5020748;28;20233;-70
2023/10/29 13:10:12;;;;;;;0.80;0.80;;;;;16.30;98910.00;;;;5018712;28;20326;-67
2023/10/29 13:12:59;;;;;;;2.57;1.10;;;;;16.30;98911.00;;;;5022917;28;20237;-69
2023/10/29 13:15:46;;;;;;;2.87;0.93;;;;;16.10;98920.00;;;;5024424;28;20284;-71
2023/10/29 13:18:34;;;;;;;1.43;0.93;;;;;16.10;98932.00;;;;5045283;28;20236;-69
2023/10/29 13:21:20;;;;;;;3.37;2.23;;;;;16.00;98945.00;;;;5042872;28;20291;-70
2023/10/29 13:24:07;;;;;;;3.03;1.23;;;;;15.90;98946.00;;;;5026724;28;20311;-70
2023/10/29 13:26:54;;;;;;;3.00;1.17;;;;;15.80;98943.00;;;;5024897;28;20229;-70
2023/10/29 13:29:43;;;;;;;0.97;0.80;;;;;15.60;98920.00;;;;5020749;28;20606;-69
2023/10/29 13:32:29;;;;;;;1.70;1.00;;;;;15.70;98899.00;;;;5020784;28;20237;-70
2023/10/29 13:35:17;;;;;;;3.03;1.40;;;;;15.70;98889.00;;;;5026992;28;20240;-70
2023/10/29 13:38:04;;;;;;;1.30;1.20;;;;;15.70;98883.00;;;;5023883;28;20280;-71
2023/10/29 13:40:50;;;;;;;1.10;0.80;;;;;15.80;98890.00;;;;5018604;28;20883;-69
2023/10/29 13:43:37;;;;;;;4.40;1.30;;;;;15.80;98885.00;;;;5026327;28;20316;-70
2023/10/29 13:46:23;;;;;;;4.80;1.80;;;;;15.80;98883.00;;;;5044832;28;20234;-71
2023/10/29 13:49:10;;;;;;;0.87;0.87;;;;;15.80;98874.00;;;;5022538;28;20436;-69
2023/10/29 13:51:57;;;;;;;2.27;1.00;;;;;15.80;98864.00;;;;5023633;28;20253;-69
2023/10/29 13:54:44;;;;;;;0.87;0.83;;;;;15.70;98866.00;;;;5022710;28;20228;-71
2023/10/29 13:57:31;;;;;;;2.90;0.80;;;;;15.80;98872.00;;;;5021585;28;20296;-71
2023/10/29 14:00:18;;;;;;;1.23;0.90;;;;;15.80;98872.00;;;;5020406;28;20276;-70